createdAt,value
2018-06-12T00:01:43.584Z,77.11
2018-06-12T00:02:43.585Z,77.21
2018-06-12T00:04:36.516Z,77.11
2018-06-12T00:05:36.539Z,76.54
2018-06-12T00:07:29.486Z,77.11
2018-06-12T00:08:29.492Z,77.11
2018-06-12T00:10:22.421Z,77.31
2018-06-12T00:11:22.445Z,76.73
2018-06-12T00:13:15.399Z,77.02
2018-06-12T00:14:15.400Z,77.11
2018-06-12T00:16:08.352Z,76.54
2018-06-12T00:17:08.357Z,77.02
2018-06-12T00:19:01.286Z,76.82
2018-06-12T00:20:01.312Z,77.11
2018-06-12T00:21:54.259Z,76.60
2018-06-12T00:22:54.265Z,77.40
2018-06-12T00:24:47.704Z,77.59
2018-06-12T00:25:47.727Z,77.69
2018-06-12T00:27:40.680Z,76.92
2018-06-12T00:28:40.681Z,77.08
2018-06-12T00:30:33.611Z,77.11
2018-06-12T00:31:33.636Z,77.02
2018-06-12T00:33:26.583Z,77.65
2018-06-12T00:34:26.589Z,78.13
2018-06-12T00:36:19.522Z,77.50
2018-06-12T00:37:19.543Z,77.78
2018-06-12T00:39:12.518Z,77.50
2018-06-12T00:40:12.499Z,77.59
2018-06-12T00:42:05.451Z,77.31
2018-06-12T00:43:05.453Z,77.31
2018-06-12T00:44:58.386Z,77.97
2018-06-12T00:45:58.408Z,77.40
2018-06-12T00:47:51.357Z,77.31
2018-06-12T00:48:51.361Z,77.84
2018-06-12T00:50:44.293Z,77.88
2018-06-12T00:51:44.314Z,77.88
2018-06-12T00:53:38.806Z,77.21
2018-06-12T00:54:38.807Z,77.50
2018-06-12T00:56:31.736Z,77.69
2018-06-12T00:57:31.758Z,77.21
2018-06-12T00:59:24.717Z,77.02
2018-06-12T01:00:24.713Z,77.31
2018-06-12T01:02:17.645Z,77.21
2018-06-12T01:03:17.655Z,77.21
2018-06-12T01:05:10.598Z,77.21
2018-06-12T01:06:10.621Z,77.59
2018-06-12T01:08:04.046Z,77.21
2018-06-12T01:09:04.055Z,76.82
2018-06-12T01:10:57.019Z,78.07
2018-06-12T01:11:57.040Z,77.40
2018-06-12T01:13:49.990Z,77.31
2018-06-12T01:14:49.995Z,77.97
2018-06-12T01:16:42.927Z,77.40
2018-06-12T01:17:42.949Z,77.11
2018-06-12T01:19:35.898Z,78.07
2018-06-12T01:20:35.904Z,77.84
2018-06-12T01:22:28.835Z,77.78
2018-06-12T01:23:28.858Z,77.88
2018-06-12T01:25:21.805Z,78.07
2018-06-12T01:26:21.810Z,78.32
2018-06-12T01:28:14.762Z,77.75
2018-06-12T01:29:14.765Z,78.17
2018-06-12T01:31:07.697Z,78.03
2018-06-12T01:32:07.718Z,77.84
2018-06-12T01:34:00.649Z,77.65
2018-06-12T01:35:00.653Z,77.84
2018-06-12T01:36:53.604Z,77.84
2018-06-12T01:37:53.628Z,77.46
2018-06-12T01:39:46.579Z,77.65
2018-06-12T01:40:46.584Z,77.55
2018-06-12T01:42:39.517Z,77.17
2018-06-12T01:43:39.537Z,77.26
2018-06-12T01:45:32.486Z,77.36
2018-06-12T01:46:32.493Z,77.65
2018-06-12T01:48:25.459Z,77.17
2018-06-12T01:49:25.444Z,78.03
2018-06-12T01:51:18.886Z,77.36
2018-06-12T01:52:18.912Z,77.17
2018-06-12T01:54:11.864Z,77.94
2018-06-12T01:55:11.864Z,77.17
2018-06-12T01:57:04.796Z,76.79
2018-06-12T01:58:04.819Z,77.36
2018-06-12T01:59:57.769Z,77.55
2018-06-12T02:00:57.772Z,77.36
2018-06-12T02:02:50.703Z,77.26
2018-06-12T02:03:50.727Z,77.46
2018-06-12T02:05:43.677Z,77.46
2018-06-12T02:06:43.681Z,76.79
2018-06-12T02:08:36.610Z,76.89
2018-06-12T02:09:36.636Z,76.60
2018-06-12T02:11:29.587Z,76.50
2018-06-12T02:12:29.594Z,76.21
2018-06-12T02:14:22.554Z,76.89
2018-06-12T02:15:22.544Z,76.69
2018-06-12T02:17:15.477Z,76.64
2018-06-12T02:18:15.499Z,76.15
2018-06-12T02:20:08.447Z,76.64
2018-06-12T02:21:08.453Z,76.60
2018-06-12T02:23:01.384Z,76.12
2018-06-12T02:24:01.405Z,76.21
2018-06-12T02:25:54.356Z,76.12
2018-06-12T02:26:54.359Z,76.02
2018-06-12T02:28:47.292Z,76.60
2018-06-12T02:29:47.314Z,76.15
2018-06-12T02:31:40.265Z,76.12
2018-06-12T02:32:40.271Z,76.12
2018-06-12T02:34:33.199Z,76.12
2018-06-12T02:35:33.221Z,75.73
2018-06-12T02:37:26.171Z,75.83
2018-06-12T02:38:26.176Z,76.12
2018-06-12T02:40:19.127Z,76.31
2018-06-12T02:41:19.133Z,76.12
2018-06-12T02:43:12.061Z,76.02
2018-06-12T02:44:12.086Z,76.40
2018-06-12T02:46:05.034Z,76.12
2018-06-12T02:47:05.037Z,76.31
2018-06-12T02:48:57.971Z,75.96
2018-06-12T02:49:57.995Z,75.96
2018-06-12T02:51:50.949Z,75.96
2018-06-12T02:52:50.947Z,76.25
2018-06-12T02:54:43.881Z,76.35
2018-06-12T02:55:43.902Z,76.06
2018-06-12T02:57:37.363Z,75.77
2018-06-12T02:58:37.369Z,75.58
2018-06-12T03:00:30.331Z,76.15
2018-06-12T03:01:30.323Z,75.87
2018-06-12T03:03:23.253Z,75.10
2018-06-12T03:04:23.278Z,75.39
2018-06-12T03:06:16.227Z,75.39
2018-06-12T03:07:16.254Z,75.39
2018-06-12T03:09:09.172Z,75.48
2018-06-12T03:10:09.184Z,75.20
2018-06-12T03:12:02.645Z,75.58
2018-06-12T03:13:02.654Z,75.48
2018-06-12T03:14:55.583Z,75.68
2018-06-12T03:15:55.611Z,75.01
2018-06-12T03:17:49.065Z,75.68
2018-06-12T03:18:49.069Z,75.29
2018-06-12T03:20:42.225Z,75.20
2018-06-12T03:21:42.129Z,74.82
2018-06-12T03:23:35.083Z,75.29
2018-06-12T03:24:35.083Z,74.91
2018-06-12T03:26:28.033Z,75.77
2018-06-12T03:27:28.036Z,75.20
2018-06-12T03:29:20.968Z,75.58
2018-06-12T03:30:20.996Z,75.48
2018-06-12T03:32:13.940Z,75.20
2018-06-12T03:33:13.947Z,75.29
2018-06-12T03:35:06.898Z,75.58
2018-06-12T03:36:06.899Z,75.29
2018-06-12T03:37:59.849Z,75.29
2018-06-12T03:38:59.852Z,75.48
2018-06-12T03:40:52.783Z,75.58
2018-06-12T03:41:52.808Z,75.39
2018-06-12T03:43:45.760Z,75.01
2018-06-12T03:44:45.761Z,75.16
2018-06-12T03:46:38.712Z,75.35
2018-06-12T03:47:38.714Z,75.54
2018-06-12T03:49:31.645Z,75.39
2018-06-12T03:50:31.676Z,74.97
2018-06-12T03:52:24.617Z,74.97
2018-06-12T03:53:24.621Z,75.07
2018-06-12T03:55:17.563Z,75.54
2018-06-12T03:56:17.578Z,75.01
2018-06-12T03:58:10.525Z,75.58
2018-06-12T03:59:10.530Z,74.91
2018-06-12T04:01:03.471Z,75.29
2018-06-12T04:02:03.488Z,75.20
2018-06-12T04:03:56.435Z,74.43
2018-06-12T04:04:56.438Z,74.82
2018-06-12T04:06:49.389Z,74.52
2018-06-12T04:07:49.397Z,74.33
2018-06-12T04:09:42.334Z,74.15
2018-06-12T04:10:42.349Z,74.52
2018-06-12T04:12:35.305Z,74.33
2018-06-12T04:13:35.302Z,74.15
2018-06-12T04:15:28.753Z,74.33
2018-06-12T04:16:28.768Z,74.24
2018-06-12T04:18:21.720Z,73.66
2018-06-12T04:19:21.723Z,73.57
2018-06-12T04:21:14.655Z,73.86
2018-06-12T04:22:14.677Z,73.38
2018-06-12T04:24:07.633Z,72.80
2018-06-12T04:25:07.633Z,72.71
2018-06-12T04:27:01.077Z,73.22
2018-06-12T04:28:01.097Z,73.22
2018-06-12T04:29:54.552Z,72.55
2018-06-12T04:30:54.051Z,72.55
2018-06-12T04:32:46.982Z,72.45
2018-06-12T04:33:47.005Z,72.45
2018-06-12T04:35:41.492Z,72.36
2018-06-12T04:36:41.495Z,72.07
2018-06-12T04:38:34.447Z,72.55
2018-06-12T04:39:34.452Z,72.27
2018-06-12T04:41:27.383Z,72.17
2018-06-12T04:42:27.404Z,72.36
2018-06-12T04:44:20.368Z,72.17
2018-06-12T04:45:20.358Z,72.27
2018-06-12T04:47:13.289Z,72.27
2018-06-12T04:48:13.312Z,72.45
2018-06-12T04:50:06.264Z,71.40
2018-06-12T04:51:06.271Z,71.88
2018-06-12T04:52:59.197Z,71.50
2018-06-12T04:53:59.220Z,71.53
2018-06-12T04:55:52.171Z,71.25
2018-06-12T04:56:52.175Z,71.05
2018-06-12T04:58:45.124Z,70.00
2018-06-12T04:59:45.130Z,69.90
2018-06-12T05:01:38.062Z,70.09
2018-06-12T05:02:38.085Z,69.71
2018-06-12T05:04:31.546Z,70.51
2018-06-12T05:05:31.548Z,69.93
2018-06-12T05:07:24.481Z,69.74
2018-06-12T05:08:24.503Z,69.26
2018-06-12T05:10:17.456Z,68.59
2018-06-12T05:11:17.461Z,68.50
2018-06-12T05:13:10.391Z,68.21
2018-06-12T05:14:10.418Z,68.40
2018-06-12T05:16:03.362Z,68.30
2018-06-12T05:17:03.368Z,67.67
2018-06-12T05:18:56.295Z,67.86
2018-06-12T05:19:56.355Z,67.00
2018-06-12T05:21:49.272Z,66.71
2018-06-12T05:22:49.276Z,67.00
2018-06-12T05:24:42.236Z,66.90
2018-06-12T05:25:42.231Z,66.13
2018-06-12T05:27:35.158Z,65.49
2018-06-12T05:28:35.184Z,65.20
2018-06-12T05:30:28.134Z,65.11
2018-06-12T05:31:28.138Z,65.01
2018-06-12T05:33:21.067Z,64.43
2018-06-12T05:34:21.091Z,64.98
2018-06-12T05:36:14.042Z,65.20
2018-06-12T05:37:14.053Z,65.01
2018-06-12T05:39:06.974Z,64.92
2018-06-12T05:40:07.000Z,65.40
2018-06-12T05:41:59.950Z,64.82
2018-06-12T05:42:59.956Z,64.82
2018-06-12T05:44:52.891Z,64.63
2018-06-12T05:45:52.909Z,64.63
2018-06-12T05:47:45.857Z,64.43
2018-06-12T05:48:45.865Z,63.96
2018-06-12T05:50:38.808Z,64.92
2018-06-12T05:51:38.829Z,64.43
2018-06-12T05:53:32.259Z,64.53
2018-06-12T05:54:32.287Z,64.63
2018-06-12T05:56:25.231Z,64.63
2018-06-12T05:57:25.250Z,64.05
2018-06-12T05:59:19.704Z,64.72
2018-06-12T06:00:19.733Z,64.63
2018-06-12T06:02:12.680Z,63.57
2018-06-12T06:03:12.686Z,64.34
2018-06-12T06:05:05.713Z,63.76
2018-06-12T06:06:05.741Z,63.48
2018-06-12T06:07:58.735Z,63.28
2018-06-12T06:08:58.691Z,63.86
2018-06-12T06:10:51.638Z,63.76
2018-06-12T06:11:51.650Z,63.32
2018-06-12T06:13:44.604Z,62.84
2018-06-12T06:14:44.610Z,62.26
2018-06-12T06:16:37.659Z,62.55
2018-06-12T06:17:37.661Z,62.16
2018-06-12T06:19:30.590Z,61.78
2018-06-12T06:20:30.616Z,61.20
2018-06-12T06:22:23.665Z,60.46
2018-06-12T06:23:23.672Z,60.39
2018-06-12T06:25:16.714Z,60.11
2018-06-12T06:26:16.728Z,59.85
2018-06-12T06:28:09.782Z,58.63
2018-06-12T06:29:09.786Z,57.57
2018-06-12T06:31:03.222Z,54.44
2018-06-12T06:32:03.252Z,53.58
2018-06-12T06:33:56.194Z,53.87
2018-06-12T06:34:56.202Z,53.03
2018-06-12T06:36:49.226Z,52.25
2018-06-12T06:37:49.222Z,52.83
2018-06-12T06:39:42.184Z,52.81
2018-06-12T06:40:42.213Z,53.27
2018-06-12T06:42:35.197Z,53.65
2018-06-12T06:43:35.169Z,54.32
2018-06-12T06:45:28.092Z,55.19
2018-06-12T06:46:28.131Z,55.07
2018-06-12T06:48:21.102Z,54.75
2018-06-12T06:49:21.075Z,55.90
2018-06-12T06:51:14.628Z,57.06
2018-06-12T06:52:14.665Z,56.65
2018-06-12T06:54:08.088Z,56.65
2018-06-12T06:55:08.097Z,57.22
2018-06-12T06:57:01.021Z,57.32
2018-06-12T06:58:01.051Z,57.60
2018-06-12T06:59:53.999Z,57.70
2018-06-12T07:00:54.005Z,58.28
2018-06-12T07:02:46.953Z,57.42
2018-06-12T07:03:46.960Z,57.64
2018-06-12T07:05:39.884Z,57.90
2018-06-12T07:06:39.911Z,57.90
2018-06-12T07:08:32.858Z,57.80
2018-06-12T07:09:32.864Z,57.42
2018-06-12T07:11:25.789Z,58.12
2018-06-12T07:12:25.816Z,56.77
2018-06-12T07:14:18.756Z,57.45
2018-06-12T07:15:18.768Z,57.06
2018-06-12T07:17:11.689Z,56.38
2018-06-12T07:18:11.712Z,57.03
2018-06-12T07:20:04.659Z,56.55
2018-06-12T07:21:04.666Z,57.03
2018-06-12T07:22:57.593Z,57.80
2018-06-12T07:23:57.617Z,58.18
2018-06-12T07:25:50.567Z,58.18
2018-06-12T07:26:50.573Z,58.47
2018-06-12T07:28:43.521Z,58.47
2018-06-12T07:29:43.525Z,57.99
2018-06-12T07:31:36.450Z,58.47
2018-06-12T07:32:36.475Z,58.28
2018-06-12T07:34:29.926Z,57.80
2018-06-12T07:35:29.934Z,57.99
2018-06-12T07:37:22.854Z,58.35
2018-06-12T07:38:22.883Z,58.47
2018-06-12T07:40:15.826Z,58.09
2018-06-12T07:41:15.834Z,58.18
2018-06-12T07:43:08.758Z,57.77
2018-06-12T07:44:08.786Z,57.87
2018-06-12T07:46:01.731Z,57.58
2018-06-12T07:47:01.738Z,58.25
2018-06-12T07:48:55.170Z,58.18
2018-06-12T07:49:55.181Z,57.99
2018-06-12T07:51:48.098Z,57.80
2018-06-12T07:52:48.124Z,57.22
2018-06-12T07:54:41.073Z,56.96
2018-06-12T07:55:41.072Z,56.77
2018-06-12T07:57:34.101Z,56.96
2018-06-12T07:58:34.129Z,56.58
2018-06-12T08:00:27.110Z,56.58
2018-06-12T08:01:27.082Z,56.20
2018-06-12T08:03:20.009Z,56.58
2018-06-12T08:04:20.037Z,56.87
2018-06-12T08:06:13.082Z,56.10
2018-06-12T08:07:13.093Z,56.29
2018-06-12T08:09:06.559Z,56.20
2018-06-12T08:10:06.557Z,56.32
2018-06-12T08:11:59.490Z,54.58
2018-06-12T08:12:59.617Z,54.58
2018-06-12T08:14:52.969Z,54.68
2018-06-12T08:15:52.978Z,54.87
2018-06-12T08:17:46.008Z,55.55
2018-06-12T08:18:46.035Z,55.45
2018-06-12T08:20:39.084Z,55.16
2018-06-12T08:21:39.093Z,55.65
2018-06-12T08:23:32.120Z,54.49
2018-06-12T08:24:32.148Z,54.10
2018-06-12T08:26:25.095Z,54.13
2018-06-12T08:27:25.105Z,53.55
2018-06-12T08:29:18.134Z,53.84
2018-06-12T08:30:18.271Z,53.74
2018-06-12T08:32:11.212Z,53.84
2018-06-12T08:33:11.225Z,53.67
2018-06-12T08:35:04.274Z,53.36
2018-06-12T08:36:04.276Z,53.00
2018-06-12T08:37:57.712Z,53.09
2018-06-12T08:38:57.742Z,52.59
2018-06-12T08:40:50.792Z,53.94
2018-06-12T08:41:50.798Z,53.74
2018-06-12T08:43:43.824Z,53.84
2018-06-12T08:44:43.850Z,53.74
2018-06-12T08:46:36.899Z,53.39
2018-06-12T08:47:36.908Z,53.17
2018-06-12T08:49:29.939Z,53.27
2018-06-12T08:50:29.968Z,53.19
2018-06-12T08:52:23.014Z,52.78
2018-06-12T08:53:23.023Z,53.17
2018-06-12T08:55:16.051Z,53.43
2018-06-12T08:56:16.078Z,53.91
2018-06-12T08:58:09.125Z,54.30
2018-06-12T08:59:09.133Z,54.49
2018-06-12T09:01:02.182Z,53.81
2018-06-12T09:02:02.191Z,54.30
2018-06-12T09:03:55.219Z,53.91
2018-06-12T09:04:55.247Z,54.00
2018-06-12T09:06:48.296Z,54.87
2018-06-12T09:07:48.306Z,54.87
2018-06-12T09:09:41.335Z,55.07
2018-06-12T09:10:41.358Z,54.78
2018-06-12T09:12:34.408Z,55.74
2018-06-12T09:13:34.418Z,55.45
2018-06-12T09:15:27.446Z,55.81
2018-06-12T09:16:27.476Z,55.81
2018-06-12T09:18:20.521Z,56.00
2018-06-12T09:19:20.529Z,56.67
2018-06-12T09:21:13.556Z,55.62
2018-06-12T09:22:13.587Z,55.83
2018-06-12T09:24:06.633Z,56.38
2018-06-12T09:25:06.659Z,56.48
2018-06-12T09:26:59.592Z,55.90
2018-06-12T09:27:59.596Z,56.20
2018-06-12T09:29:53.036Z,55.33
2018-06-12T09:30:53.063Z,55.90
2018-06-12T09:32:46.109Z,56.10
2018-06-12T09:33:46.119Z,55.04
2018-06-12T09:35:39.147Z,54.87
2018-06-12T09:36:39.177Z,53.81
2018-06-12T09:38:32.633Z,53.45
2018-06-12T09:39:32.640Z,53.45
2018-06-12T09:41:25.672Z,52.30
2018-06-12T09:42:25.741Z,53.09
2018-06-12T09:44:18.746Z,52.42
2018-06-12T09:45:18.754Z,51.20
2018-06-12T09:47:11.783Z,50.62
2018-06-12T09:48:11.810Z,50.71
2018-06-12T09:50:04.859Z,50.13
2018-06-12T09:51:04.869Z,50.23
2018-06-12T09:52:57.915Z,49.94
2018-06-12T09:53:57.925Z,49.39
2018-06-12T09:55:50.952Z,50.06
2018-06-12T09:56:51.060Z,49.58
2018-06-12T09:58:44.027Z,48.79
2018-06-12T09:59:44.042Z,49.17
2018-06-12T10:01:37.069Z,50.04
2018-06-12T10:02:37.101Z,50.23
2018-06-12T10:04:30.042Z,50.04
2018-06-12T10:05:30.050Z,50.32
2018-06-12T10:07:22.973Z,51.20
2018-06-12T10:08:23.007Z,50.84
2018-06-12T10:10:15.946Z,49.68
2018-06-12T10:11:15.955Z,49.19
2018-06-12T10:13:08.903Z,49.00
2018-06-12T10:14:08.908Z,49.19
2018-06-12T10:16:01.832Z,49.29
2018-06-12T10:17:01.862Z,49.10
2018-06-12T10:18:55.306Z,48.71
2018-06-12T10:19:55.308Z,48.42
2018-06-12T10:21:48.232Z,49.00
2018-06-12T10:22:48.260Z,49.19
2018-06-12T10:24:41.210Z,48.16
2018-06-12T10:25:41.213Z,47.00
2018-06-12T10:27:34.136Z,48.28
2018-06-12T10:28:34.174Z,45.38
2018-06-12T10:30:27.112Z,45.75
2018-06-12T10:31:27.120Z,45.75
2018-06-12T10:33:20.047Z,46.88
2018-06-12T10:34:20.072Z,46.97
2018-06-12T10:36:13.020Z,46.81
2018-06-12T10:37:13.060Z,46.81
2018-06-12T10:39:05.962Z,46.83
2018-06-12T10:40:05.976Z,46.64
2018-06-12T10:41:58.902Z,46.81
2018-06-12T10:42:58.926Z,46.90
2018-06-12T10:44:51.878Z,46.81
2018-06-12T10:45:51.887Z,46.64
2018-06-12T10:47:44.811Z,46.92
2018-06-12T10:48:44.839Z,47.02
2018-06-12T10:50:37.823Z,45.67
2018-06-12T10:51:37.830Z,44.70
2018-06-12T10:53:30.858Z,44.60
2018-06-12T10:54:30.886Z,45.09
2018-06-12T10:56:23.940Z,46.06
2018-06-12T10:57:23.943Z,45.57
2018-06-12T10:59:16.993Z,45.18
2018-06-12T11:00:17.005Z,44.70
2018-06-12T11:02:09.935Z,45.45
2018-06-12T11:03:09.965Z,45.26
2018-06-12T11:05:03.031Z,45.18
2018-06-12T11:06:02.922Z,44.90
2018-06-12T11:07:55.940Z,44.97
2018-06-12T11:08:55.968Z,44.90
2018-06-12T11:10:48.947Z,44.60
2018-06-12T11:11:48.942Z,45.76
2018-06-12T11:13:41.945Z,44.70
2018-06-12T11:14:41.979Z,45.69
2018-06-12T11:16:35.433Z,44.82
2018-06-12T11:17:35.443Z,44.63
2018-06-12T11:19:28.376Z,44.17
2018-06-12T11:20:28.413Z,44.17
2018-06-12T11:22:21.357Z,43.01
2018-06-12T11:23:21.369Z,43.61
2018-06-12T11:25:14.414Z,43.30
2018-06-12T11:26:14.325Z,43.98
2018-06-12T11:28:07.258Z,44.34
2018-06-12T11:29:08.117Z,44.43
2018-06-12T11:31:00.239Z,45.21
2018-06-12T11:32:00.248Z,44.53
2018-06-12T11:33:53.175Z,43.95
2018-06-12T11:34:53.205Z,44.34
2018-06-12T11:36:46.678Z,44.46
2018-06-12T11:37:46.680Z,45.33
2018-06-12T11:39:39.609Z,44.34
2018-06-12T11:40:39.645Z,44.75
2018-06-12T11:42:32.833Z,44.56
2018-06-12T11:43:32.605Z,44.94
2018-06-12T11:45:25.531Z,45.23
2018-06-12T11:46:25.566Z,44.96
2018-06-12T11:48:19.502Z,44.19
2018-06-12T11:49:19.514Z,44.29
2018-06-12T11:51:12.459Z,44.09
2018-06-12T11:52:12.471Z,44.29
2018-06-12T11:54:05.615Z,43.63
2018-06-12T11:55:05.747Z,44.89
2018-06-12T11:56:58.699Z,43.80
2018-06-12T11:57:58.715Z,43.63
2018-06-12T11:59:51.876Z,43.34
2018-06-12T12:00:51.907Z,43.13
2018-06-12T12:02:44.855Z,43.61
2018-06-12T12:03:44.869Z,43.40
2018-06-12T12:05:37.799Z,43.71
2018-06-12T12:06:37.836Z,43.88
2018-06-12T12:08:30.775Z,44.17
2018-06-12T12:09:30.787Z,44.29
2018-06-12T12:11:23.720Z,44.29
2018-06-12T12:12:23.769Z,43.99
2018-06-12T12:14:16.699Z,44.07
2018-06-12T12:15:16.710Z,44.07
2018-06-12T12:17:09.661Z,43.95
2018-06-12T12:18:09.668Z,44.26
2018-06-12T12:20:02.602Z,44.36
2018-06-12T12:21:02.623Z,44.26
2018-06-12T12:22:55.574Z,44.48
2018-06-12T12:23:55.583Z,44.12
2018-06-12T12:25:49.004Z,42.28
2018-06-12T12:26:49.031Z,41.60
2018-06-12T12:28:41.985Z,42.93
2018-06-12T12:29:41.988Z,42.93
2018-06-12T12:31:35.412Z,42.93
2018-06-12T12:32:35.441Z,42.35
2018-06-12T12:34:28.408Z,43.40
2018-06-12T12:35:28.486Z,44.09
2018-06-12T12:37:21.421Z,44.26
2018-06-12T12:38:21.436Z,44.26
2018-06-12T12:40:14.491Z,43.41
2018-06-12T12:41:14.625Z,42.93
2018-06-12T12:43:07.537Z,42.83
2018-06-12T12:44:07.548Z,43.13
2018-06-12T12:46:00.653Z,43.23
2018-06-12T12:47:00.602Z,43.13
2018-06-12T12:48:53.648Z,42.43
2018-06-12T12:49:53.661Z,41.46
2018-06-12T12:51:46.586Z,42.04
2018-06-12T12:52:46.614Z,42.52
2018-06-12T12:54:39.569Z,42.50
2018-06-12T12:55:39.583Z,42.99
2018-06-12T12:57:32.505Z,43.95
2018-06-12T12:58:32.537Z,44.34
2018-06-12T13:00:25.485Z,44.63
2018-06-12T13:01:25.516Z,44.34
2018-06-12T13:03:18.445Z,44.82
2018-06-12T13:04:18.453Z,44.82
2018-06-12T13:06:11.384Z,45.01
2018-06-12T13:07:11.412Z,45.01
2018-06-12T13:09:04.355Z,44.53
2018-06-12T13:10:04.364Z,44.82
2018-06-12T13:11:57.291Z,45.18
2018-06-12T13:12:57.321Z,45.28
2018-06-12T13:14:50.263Z,45.31
2018-06-12T13:15:50.274Z,44.82
2018-06-12T13:17:43.200Z,44.73
2018-06-12T13:18:43.230Z,44.53
2018-06-12T13:20:36.207Z,44.92
2018-06-12T13:21:36.199Z,45.79
2018-06-12T13:23:29.138Z,45.01
2018-06-12T13:24:29.147Z,45.79
2018-06-12T13:26:22.081Z,45.11
2018-06-12T13:27:22.107Z,44.94
2018-06-12T13:29:15.056Z,45.31
2018-06-12T13:30:15.066Z,45.50
2018-06-12T13:32:07.990Z,45.50
2018-06-12T13:33:08.019Z,45.59
2018-06-12T13:35:00.970Z,45.50
2018-06-12T13:36:00.974Z,46.06
2018-06-12T13:37:53.908Z,45.86
2018-06-12T13:38:53.933Z,45.89
2018-06-12T13:40:46.909Z,46.17
2018-06-12T13:41:46.886Z,45.89
2018-06-12T13:43:39.811Z,45.89
2018-06-12T13:44:39.840Z,45.59
2018-06-12T13:46:32.804Z,46.08
2018-06-12T13:47:32.795Z,46.37
2018-06-12T13:49:25.792Z,45.69
2018-06-12T13:50:25.800Z,45.79
2018-06-12T13:52:18.734Z,46.95
2018-06-12T13:53:18.767Z,46.83
2018-06-12T13:55:11.721Z,46.64
2018-06-12T13:56:11.728Z,47.31
2018-06-12T13:58:04.658Z,48.54
2018-06-12T13:59:04.688Z,48.25
2018-06-12T14:00:57.707Z,48.83
2018-06-12T14:01:57.718Z,49.02
2018-06-12T14:03:51.155Z,49.48
2018-06-12T14:04:51.186Z,49.39
2018-06-12T14:06:44.231Z,49.29
2018-06-12T14:07:44.240Z,49.77
2018-06-12T14:09:37.289Z,49.10
2018-06-12T14:10:37.299Z,49.19
2018-06-12T14:12:30.342Z,49.77
2018-06-12T14:13:30.402Z,49.58
2018-06-12T14:15:23.412Z,49.96
2018-06-12T14:16:23.412Z,49.48
2018-06-12T14:18:16.444Z,50.74
2018-06-12T14:19:16.469Z,51.03
2018-06-12T14:21:09.590Z,50.93
2018-06-12T14:22:09.555Z,51.03
2018-06-12T14:24:03.538Z,51.41
2018-06-12T14:25:02.629Z,51.80
2018-06-12T14:26:55.626Z,51.51
2018-06-12T14:27:55.646Z,51.32
2018-06-12T14:29:50.119Z,52.09
2018-06-12T14:30:50.130Z,51.97
2018-06-12T14:32:43.172Z,51.87
2018-06-12T14:33:43.181Z,51.68
2018-06-12T14:35:36.207Z,52.35
2018-06-12T14:36:36.236Z,52.45
2018-06-12T14:38:29.285Z,52.23
2018-06-12T14:39:29.289Z,52.71
2018-06-12T14:41:22.241Z,52.83
2018-06-12T14:42:22.250Z,52.73
2018-06-12T14:44:15.283Z,53.51
2018-06-12T14:45:15.311Z,52.45
2018-06-12T14:47:08.381Z,52.71
2018-06-12T14:48:08.399Z,53.19
2018-06-12T14:50:01.287Z,54.54
2018-06-12T14:51:01.316Z,55.51
2018-06-12T14:52:54.361Z,56.47
2018-06-12T14:53:54.372Z,58.59
2018-06-12T14:55:47.898Z,58.01
2018-06-12T14:56:47.426Z,58.37
2018-06-12T14:58:40.551Z,60.00
2018-06-12T14:59:40.510Z,60.36
2018-06-12T15:01:33.432Z,60.55
2018-06-12T15:02:33.439Z,60.94
2018-06-12T15:04:26.466Z,62.29
2018-06-12T15:05:26.569Z,62.96
2018-06-12T15:07:19.544Z,63.92
2018-06-12T15:08:19.549Z,64.02
2018-06-12T15:10:12.475Z,64.12
2018-06-12T15:11:12.507Z,64.47
2018-06-12T15:13:05.448Z,64.86
2018-06-12T15:14:05.455Z,65.43
2018-06-12T15:15:58.389Z,63.73
2018-06-12T15:16:58.410Z,63.92
2018-06-12T15:18:51.374Z,63.22
2018-06-12T15:19:51.367Z,63.79
2018-06-12T15:21:44.313Z,64.08
2018-06-12T15:22:44.320Z,64.34
2018-06-12T15:24:37.757Z,64.34
2018-06-12T15:25:37.787Z,63.95
2018-06-12T15:27:30.730Z,65.24
2018-06-12T15:28:30.817Z,65.81
2018-06-12T15:30:23.664Z,64.95
2018-06-12T15:31:23.691Z,64.18
2018-06-12T15:33:16.646Z,64.28
2018-06-12T15:34:16.651Z,64.12
2018-06-12T15:36:09.679Z,63.54
2018-06-12T15:37:09.706Z,61.42
2018-06-12T15:39:02.861Z,59.91
2018-06-12T15:40:02.834Z,59.14
2018-06-12T15:41:55.792Z,58.27
2018-06-12T15:42:55.816Z,58.27
2018-06-12T15:44:48.877Z,57.79
2018-06-12T15:45:48.950Z,57.89
2018-06-12T15:47:41.922Z,56.76
2018-06-12T15:48:41.934Z,56.09
2018-06-12T15:50:34.967Z,56.73
2018-06-12T15:51:34.987Z,56.37
2018-06-12T15:53:28.035Z,56.09
2018-06-12T15:54:28.042Z,56.35
2018-06-12T15:56:21.075Z,56.35
2018-06-12T15:57:21.101Z,56.25
2018-06-12T15:59:14.150Z,56.47
2018-06-12T16:00:14.157Z,56.27
2018-06-12T16:02:07.186Z,56.63
2018-06-12T16:03:07.213Z,56.35
2018-06-12T16:05:00.260Z,55.96
2018-06-12T16:06:00.269Z,56.47
2018-06-12T16:07:53.217Z,56.09
2018-06-12T16:08:53.224Z,55.79
2018-06-12T16:10:46.253Z,54.74
2018-06-12T16:11:46.280Z,54.54
2018-06-12T16:13:39.330Z,55.12
2018-06-12T16:14:39.338Z,54.93
2018-06-12T16:16:32.263Z,53.77
2018-06-12T16:17:32.293Z,54.06
2018-06-12T16:19:25.344Z,54.93
2018-06-12T16:20:25.425Z,54.76
2018-06-12T16:22:18.789Z,54.96
2018-06-12T16:23:18.817Z,54.38
2018-06-12T16:25:11.869Z,53.89
2018-06-12T16:26:11.930Z,53.41
2018-06-12T16:28:04.902Z,54.18
2018-06-12T16:29:04.928Z,53.41
2018-06-12T16:30:57.874Z,53.87
2018-06-12T16:31:57.881Z,53.67
2018-06-12T16:33:50.929Z,53.67
2018-06-12T16:34:50.957Z,53.39
2018-06-12T16:36:44.396Z,52.71
2018-06-12T16:37:44.404Z,53.39
2018-06-12T16:39:37.452Z,53.48
2018-06-12T16:40:37.459Z,53.87
2018-06-12T16:42:30.490Z,53.45
2018-06-12T16:43:30.517Z,53.94
2018-06-12T16:45:23.567Z,54.25
2018-06-12T16:46:23.590Z,53.77
2018-06-12T16:48:16.604Z,53.41
2018-06-12T16:49:16.633Z,53.13
2018-06-12T16:51:09.675Z,53.03
2018-06-12T16:52:09.696Z,53.51
2018-06-12T16:54:02.716Z,53.13
2018-06-12T16:55:02.799Z,53.41
2018-06-12T16:56:55.800Z,53.51
2018-06-12T16:57:55.802Z,53.31
2018-06-12T16:59:48.846Z,53.41
2018-06-12T17:00:48.857Z,53.80
2018-06-12T17:02:41.886Z,52.83
2018-06-12T17:03:41.914Z,52.91
2018-06-12T17:05:34.964Z,52.61
2018-06-12T17:06:34.973Z,52.33
2018-06-12T17:08:28.003Z,53.09
2018-06-12T17:09:28.026Z,53.48
2018-06-12T17:11:21.483Z,53.17
2018-06-12T17:12:21.491Z,53.17
2018-06-12T17:14:14.519Z,52.91
2018-06-12T17:15:14.626Z,53.09
2018-06-12T17:17:08.005Z,53.27
2018-06-12T17:18:08.094Z,53.27
2018-06-12T17:20:01.071Z,53.45
2018-06-12T17:21:01.070Z,53.17
2018-06-12T17:22:53.997Z,54.32
2018-06-12T17:23:54.026Z,54.90
2018-06-12T17:25:47.070Z,54.90
2018-06-12T17:26:47.083Z,54.42
2018-06-12T17:28:40.022Z,53.94
2018-06-12T17:29:40.035Z,54.80
2018-06-12T17:31:33.085Z,55.09
2018-06-12T17:32:33.092Z,54.61
2018-06-12T17:34:26.120Z,54.52
2018-06-12T17:35:26.146Z,53.84
2018-06-12T17:37:19.198Z,54.87
2018-06-12T17:38:19.206Z,55.26
2018-06-12T17:40:12.238Z,56.22
2018-06-12T17:41:12.260Z,56.32
2018-06-12T17:43:10.226Z,56.99
2018-06-12T17:44:10.237Z,57.09
2018-06-12T17:46:03.265Z,57.18
2018-06-12T17:47:03.288Z,57.28
2018-06-12T17:48:56.337Z,57.64
2018-06-12T17:49:56.347Z,57.73
2018-06-12T17:51:49.292Z,58.02
2018-06-12T17:52:49.299Z,58.50
2018-06-12T17:54:42.250Z,59.05
2018-06-12T17:55:42.253Z,59.53
2018-06-12T17:57:35.199Z,59.44
2018-06-12T17:58:35.203Z,59.63
2018-06-12T18:00:28.135Z,60.11
2018-06-12T18:01:28.157Z,60.30
2018-06-12T18:03:21.107Z,60.30
2018-06-12T18:04:21.116Z,60.11
2018-06-12T18:06:14.555Z,60.59
2018-06-12T18:07:14.579Z,60.11
2018-06-12T18:09:07.527Z,60.39
2018-06-12T18:10:07.534Z,60.88
2018-06-12T18:12:00.492Z,60.30
2018-06-12T18:13:00.490Z,60.30
2018-06-12T18:14:53.417Z,60.39
2018-06-12T18:15:53.441Z,60.11
2018-06-12T18:17:46.388Z,60.21
2018-06-12T18:18:46.423Z,60.21
2018-06-12T18:20:39.837Z,60.01
2018-06-12T18:21:39.863Z,60.39
2018-06-12T18:23:32.914Z,60.30
2018-06-12T18:24:32.930Z,60.39
2018-06-12T18:26:25.955Z,61.07
2018-06-12T18:27:25.978Z,60.49
2018-06-12T18:29:20.026Z,61.23
2018-06-12T18:30:20.034Z,62.10
2018-06-12T18:32:12.983Z,62.10
2018-06-12T18:33:13.009Z,62.19
2018-06-12T18:35:05.954Z,62.19